createdAt,value
2019-04-23T00:00:03.396Z,4.20
2019-04-23T00:02:29.723Z,4.28
2019-04-23T00:04:36.770Z,5.22
2019-04-23T00:06:53.839Z,4.37
2019-04-23T00:11:08.706Z,4.90
2019-04-23T00:13:08.787Z,4.70
2019-04-23T00:15:12.014Z,4.47
2019-04-23T00:17:24.697Z,4.33
2019-04-23T00:19:28.535Z,4.37
2019-04-23T00:21:58.538Z,4.55
2019-04-23T00:24:11.712Z,4.33
2019-04-23T00:30:38.195Z,3.70
2019-04-23T00:32:34.983Z,4.72
2019-04-23T00:34:51.457Z,4.22
2019-04-23T00:36:57.342Z,4.28
2019-04-23T00:38:59.255Z,3.92
2019-04-23T00:41:05.717Z,4.45
2019-04-23T00:45:16.622Z,4.53
2019-04-23T00:47:25.619Z,4.25
2019-04-23T00:49:34.504Z,4.17
2019-04-23T00:51:36.953Z,3.72
2019-04-23T00:53:40.079Z,4.92
2019-04-23T00:58:02.893Z,4.50
2019-04-23T01:00:10.503Z,4.05
2019-04-23T01:02:13.313Z,4.37
2019-04-23T01:04:22.820Z,4.25
2019-04-23T01:06:24.222Z,4.20
2019-04-23T01:08:31.758Z,4.10
2019-04-23T01:10:52.300Z,3.72
2019-04-23T01:15:07.557Z,4.12
2019-04-23T01:17:13.002Z,3.98
2019-04-23T01:19:37.240Z,3.85
2019-04-23T01:21:26.554Z,4.15
2019-04-23T01:24:02.722Z,4.28
2019-04-23T01:26:24.039Z,3.67
2019-04-23T01:28:46.236Z,3.50
2019-04-23T01:30:41.196Z,3.65
2019-04-23T01:32:48.368Z,3.83
2019-04-23T01:35:07.320Z,3.77
2019-04-23T01:37:07.766Z,3.70
2019-04-23T01:39:11.640Z,3.30
2019-04-23T01:41:20.483Z,3.67
2019-04-23T01:43:23.463Z,3.72
2019-04-23T01:45:26.932Z,3.65
2019-04-23T01:49:53.988Z,3.60
2019-04-23T01:51:58.441Z,3.87
2019-04-23T01:53:58.775Z,3.80
2019-04-23T01:56:06.129Z,3.72
2019-04-23T01:58:27.199Z,4.05
2019-04-23T02:00:34.076Z,3.40
2019-04-23T02:02:32.867Z,3.52
2019-04-23T02:04:36.624Z,3.40
2019-04-23T02:06:40.547Z,3.25
2019-04-23T02:08:56.786Z,3.50
2019-04-23T02:10:56.721Z,3.25
2019-04-23T02:15:13.719Z,3.42
2019-04-23T02:17:18.927Z,3.55
2019-04-23T02:19:23.804Z,3.42
2019-04-23T02:21:35.082Z,3.33
2019-04-23T02:23:42.478Z,3.52
2019-04-23T02:25:52.169Z,3.65
2019-04-23T02:30:15.605Z,3.33
2019-04-23T02:32:10.360Z,3.40
2019-04-23T02:34:35.823Z,3.42
2019-04-23T02:36:31.407Z,3.20
2019-04-23T02:40:54.962Z,3.47
2019-04-23T02:43:01.744Z,3.02
2019-04-23T02:45:07.520Z,3.17
2019-04-23T02:47:17.411Z,3.12
2019-04-23T02:49:22.097Z,3.00
2019-04-23T02:51:29.065Z,3.08
2019-04-23T02:55:43.273Z,3.15
2019-04-23T03:06:07.882Z,3.58
2019-04-23T03:10:24.654Z,3.25
2019-04-23T03:14:35.202Z,3.37
2019-04-23T03:17:00.300Z,3.12
2019-04-23T03:19:39.285Z,3.58
2019-04-23T03:22:06.008Z,2.85
2019-04-23T03:35:29.331Z,2.98
2019-04-23T03:37:34.091Z,2.98
2019-04-23T03:39:46.193Z,3.08
2019-04-23T03:43:46.564Z,3.45
2019-04-23T03:45:58.954Z,3.42
2019-04-23T03:48:03.238Z,3.02
2019-04-23T03:50:05.252Z,3.27
2019-04-23T03:52:33.015Z,3.00
2019-04-23T04:04:45.140Z,3.02
2019-04-23T04:09:17.439Z,3.02
2019-04-23T04:13:24.378Z,3.08
2019-04-23T04:15:47.104Z,2.72
2019-04-23T04:17:26.806Z,3.00
2019-04-23T04:19:44.819Z,2.80
2019-04-23T04:21:53.691Z,3.25
2019-04-23T04:24:07.509Z,2.62
2019-04-23T04:26:00.855Z,3.10
2019-04-23T04:28:12.172Z,2.87
2019-04-23T04:30:14.500Z,2.87
2019-04-23T04:32:12.033Z,2.50
2019-04-23T04:36:58.373Z,3.00
2019-04-23T04:41:01.111Z,2.85
2019-04-23T04:45:00.060Z,2.85
2019-04-23T04:49:14.987Z,2.65
2019-04-23T04:51:35.354Z,2.80
2019-04-23T04:55:42.276Z,2.60
2019-04-23T04:59:55.535Z,2.87
2019-04-23T05:02:01.180Z,2.60
2019-04-23T05:03:55.001Z,2.80
2019-04-23T05:06:16.197Z,3.02
2019-04-23T05:10:39.148Z,2.83
2019-04-23T05:12:39.077Z,2.87
2019-04-23T05:14:45.669Z,2.55
2019-04-23T05:16:47.026Z,3.15
2019-04-23T05:18:53.650Z,3.12
2019-04-23T05:20:58.528Z,3.30
2019-04-23T05:23:18.375Z,3.58
2019-04-23T05:25:08.857Z,3.77
2019-04-23T05:27:09.322Z,3.83
2019-04-23T05:29:14.527Z,3.98
2019-04-23T05:33:38.101Z,3.50
2019-04-23T05:38:05.375Z,3.85
2019-04-23T05:39:55.061Z,4.05
2019-04-23T05:42:00.604Z,3.60
2019-04-23T05:44:15.695Z,3.95
2019-04-23T05:46:23.689Z,3.58
2019-04-23T05:48:23.393Z,3.60
2019-04-23T05:50:50.597Z,3.95
2019-04-23T05:52:38.894Z,3.95
2019-04-23T05:54:49.964Z,4.42
2019-04-23T05:57:00.254Z,4.40
2019-04-23T05:59:04.177Z,4.00
2019-04-23T06:01:47.227Z,4.40
2019-04-23T06:03:30.590Z,4.05
2019-04-23T06:05:41.548Z,4.60
2019-04-23T06:07:48.958Z,4.28
2019-04-23T06:09:53.525Z,4.20
2019-04-23T06:12:01.369Z,4.28
2019-04-23T06:14:14.330Z,4.30
2019-04-23T06:16:15.748Z,4.20
2019-04-23T06:20:27.581Z,3.95
2019-04-23T06:22:35.236Z,4.53
2019-04-23T06:24:49.199Z,4.47
2019-04-23T06:26:49.265Z,3.90
2019-04-23T06:28:50.898Z,4.17
2019-04-23T06:33:11.585Z,4.80
2019-04-23T06:35:11.757Z,4.08
2019-04-23T06:37:22.735Z,4.70
2019-04-23T06:39:30.974Z,4.47
2019-04-23T06:43:54.689Z,4.55
2019-04-23T06:45:50.883Z,4.92
2019-04-23T06:48:10.555Z,5.00
2019-04-23T06:50:08.127Z,4.47
2019-04-23T06:52:18.691Z,4.87
2019-04-23T06:54:27.682Z,5.25
2019-04-23T06:56:35.215Z,5.62
2019-04-23T06:58:37.111Z,5.17
2019-04-23T07:00:51.284Z,4.87
2019-04-23T07:02:54.241Z,5.25
2019-04-23T07:07:45.202Z,5.05
2019-04-23T07:09:12.104Z,5.70
2019-04-23T07:11:28.753Z,5.22
2019-04-23T07:13:31.834Z,4.97
2019-04-23T07:15:42.916Z,5.55
2019-04-23T07:17:35.020Z,5.42
2019-04-23T07:19:42.166Z,5.33
2019-04-23T07:21:55.951Z,5.33
2019-04-23T07:26:17.513Z,5.37
2019-04-23T07:28:17.960Z,5.90
2019-04-23T07:30:20.955Z,6.60
2019-04-23T07:32:47.349Z,6.47
2019-04-23T07:34:31.815Z,6.83
2019-04-23T07:36:41.116Z,6.55
2019-04-23T07:39:15.564Z,7.20
2019-04-23T07:41:30.552Z,6.37
2019-04-23T07:43:49.471Z,6.87
2019-04-23T07:48:16.588Z,6.67
2019-04-23T07:52:41.066Z,8.18
2019-04-23T07:54:44.242Z,6.75
2019-04-23T07:56:54.219Z,7.03
2019-04-23T07:58:54.374Z,6.85
2019-04-23T08:03:17.392Z,7.60
2019-04-23T08:09:34.157Z,7.17
2019-04-23T08:15:56.691Z,8.03
2019-04-23T08:18:01.758Z,8.75
2019-04-23T08:20:07.926Z,8.23
2019-04-23T08:24:48.612Z,8.63
2019-04-23T08:26:53.549Z,8.78
2019-04-23T08:29:06.188Z,9.43
2019-04-23T08:31:07.795Z,9.10
2019-04-23T08:33:10.899Z,10.30
2019-04-23T08:35:33.978Z,11.33
2019-04-23T08:37:54.332Z,9.95
2019-04-23T08:39:42.175Z,10.65
2019-04-23T08:41:57.703Z,10.50
2019-04-23T08:44:18.304Z,11.55
2019-04-23T08:46:43.405Z,12.63
2019-04-23T08:48:41.793Z,14.60
2019-04-23T08:50:48.124Z,11.95
2019-04-23T08:52:56.226Z,12.70
2019-04-23T08:55:07.601Z,10.28
2019-04-23T08:57:08.849Z,18.40
2019-04-23T08:59:25.346Z,15.25
2019-04-23T09:01:27.813Z,10.82
2019-04-23T09:07:46.778Z,13.55
2019-04-23T09:09:57.612Z,12.10
2019-04-23T09:12:18.858Z,12.70
2019-04-23T09:14:00.827Z,13.50
2019-04-23T09:16:11.998Z,10.98
2019-04-23T09:20:29.447Z,13.13
2019-04-23T09:22:46.350Z,15.03
2019-04-23T09:24:41.543Z,13.35
2019-04-23T09:26:56.319Z,13.30
2019-04-23T09:28:51.891Z,13.13
2019-04-23T09:31:11.663Z,11.90
2019-04-23T09:33:54.817Z,16.12
2019-04-23T09:36:06.443Z,13.62
2019-04-23T09:38:34.850Z,11.73
2019-04-23T09:43:14.335Z,13.25
2019-04-23T09:48:08.566Z,14.55
2019-04-23T09:50:12.351Z,13.80
2019-04-23T09:52:20.373Z,11.60
2019-04-23T09:54:27.250Z,12.88
2019-04-23T09:56:38.787Z,12.13
2019-04-23T09:58:30.076Z,10.58
2019-04-23T10:02:40.926Z,11.65
2019-04-23T10:04:48.598Z,12.58
2019-04-23T10:06:55.332Z,11.22
2019-04-23T10:08:52.190Z,11.80
2019-04-23T10:10:55.521Z,12.50
2019-04-23T10:13:02.198Z,13.98
2019-04-23T10:15:13.741Z,11.88
2019-04-23T10:17:16.064Z,14.43
2019-04-23T10:19:22.555Z,16.30
2019-04-23T10:21:29.092Z,16.57
2019-04-23T10:23:34.355Z,13.00
2019-04-23T10:25:40.317Z,10.15
2019-04-23T10:27:52.785Z,10.75
2019-04-23T10:29:52.259Z,13.15
2019-04-23T10:31:57.684Z,13.90
2019-04-23T10:34:04.370Z,8.25
2019-04-23T10:36:13.673Z,10.50
2019-04-23T10:38:20.049Z,10.45
2019-04-23T10:40:31.383Z,8.85
2019-04-23T10:42:35.966Z,10.53
2019-04-23T10:44:50.432Z,8.33
2019-04-23T10:47:42.528Z,8.55
2019-04-23T10:50:12.534Z,9.95
2019-04-23T10:52:13.314Z,10.40
2019-04-23T10:54:26.459Z,8.73
2019-04-23T10:56:27.130Z,9.20
2019-04-23T10:58:31.823Z,9.35
2019-04-23T11:00:37.675Z,8.30
2019-04-23T11:02:47.574Z,8.68
2019-04-23T11:05:13.738Z,10.50
2019-04-23T11:07:05.364Z,8.78
2019-04-23T11:09:27.256Z,7.40
2019-04-23T11:11:25.594Z,6.85
2019-04-23T11:13:33.836Z,9.00
2019-04-23T11:17:45.887Z,11.35
2019-04-23T11:19:58.240Z,12.03
2019-04-23T11:22:07.766Z,11.65
2019-04-23T11:24:10.990Z,16.10
2019-04-23T11:26:20.007Z,10.82
2019-04-23T11:28:20.675Z,9.43
2019-04-23T11:30:36.160Z,9.75
2019-04-23T11:35:01.063Z,9.20
2019-04-23T11:41:23.397Z,11.20
2019-04-23T11:43:14.778Z,8.85
2019-04-23T11:45:21.393Z,11.60
2019-04-23T11:47:47.034Z,8.65
2019-04-23T11:49:51.041Z,8.23
2019-04-23T11:51:45.960Z,9.45
2019-04-23T11:53:44.348Z,7.50
2019-04-23T11:56:02.688Z,11.95
2019-04-23T11:59:58.383Z,9.75
2019-04-23T12:02:45.245Z,7.35
2019-04-23T12:05:12.995Z,10.60
2019-04-23T12:07:40.778Z,6.83
2019-04-23T12:10:09.156Z,9.03
2019-04-23T12:12:10.768Z,9.20
2019-04-23T12:16:43.419Z,10.43
2019-04-23T12:19:15.836Z,10.80
2019-04-23T12:20:49.063Z,14.65
2019-04-23T12:23:19.378Z,8.10
2019-04-23T12:25:17.658Z,12.47
2019-04-23T12:27:25.953Z,11.63
2019-04-23T12:29:27.729Z,9.28
2019-04-23T12:31:34.906Z,11.48
2019-04-23T12:33:50.222Z,7.33
2019-04-23T12:35:39.226Z,11.70
2019-04-23T12:38:15.486Z,8.13
2019-04-23T12:42:38.306Z,11.50
2019-04-23T12:44:26.978Z,7.78
2019-04-23T12:46:29.666Z,9.80
2019-04-23T12:52:47.663Z,12.33
2019-04-23T12:55:07.838Z,9.08
2019-04-23T12:57:04.776Z,10.65
2019-04-23T12:59:08.758Z,6.42
2019-04-23T13:01:14.163Z,11.40
2019-04-23T13:03:34.155Z,8.50
2019-04-23T13:05:28.821Z,10.38
2019-04-23T13:07:40.047Z,6.12
2019-04-23T13:09:53.995Z,5.08
2019-04-23T13:12:06.512Z,9.90
2019-04-23T13:14:12.612Z,11.43
2019-04-23T13:16:16.775Z,12.47
2019-04-23T13:18:27.967Z,11.18
2019-04-23T13:20:27.951Z,10.60
2019-04-23T13:22:39.802Z,5.75
2019-04-23T13:25:02.093Z,10.95
2019-04-23T13:27:10.377Z,7.60
2019-04-23T13:29:23.755Z,13.95
2019-04-23T13:31:16.306Z,6.67
2019-04-23T13:33:42.053Z,8.28
2019-04-23T13:35:45.554Z,8.08
2019-04-23T13:38:03.941Z,11.05
2019-04-23T13:41:52.472Z,8.95
2019-04-23T13:43:57.270Z,7.97
2019-04-23T13:50:37.463Z,9.45
2019-04-23T13:52:57.534Z,10.38
2019-04-23T13:54:59.875Z,10.55
2019-04-23T13:57:16.168Z,7.30
2019-04-23T13:58:54.962Z,5.53
2019-04-23T14:01:07.462Z,11.20
2019-04-23T14:03:04.349Z,11.80
2019-04-23T14:07:56.487Z,11.65
2019-04-23T14:09:45.595Z,7.45
2019-04-23T14:11:40.434Z,6.42
2019-04-23T14:16:03.610Z,5.97
2019-04-23T14:20:21.499Z,6.28
2019-04-23T14:24:38.125Z,5.65
2019-04-23T14:26:35.167Z,8.43
2019-04-23T14:33:03.668Z,7.95
2019-04-23T14:35:18.410Z,6.00
2019-04-23T14:37:11.865Z,8.05
2019-04-23T14:39:24.071Z,15.70
2019-04-23T14:41:26.675Z,7.53
2019-04-23T14:43:40.600Z,6.25
2019-04-23T14:46:04.836Z,7.20
2019-04-23T14:47:59.059Z,4.53
2019-04-23T14:50:22.901Z,10.95
2019-04-23T14:52:14.222Z,6.50
2019-04-23T14:54:24.945Z,8.15
2019-04-23T14:56:30.191Z,8.75
2019-04-23T15:01:10.649Z,4.47
2019-04-23T15:03:13.677Z,8.50
2019-04-23T15:05:11.588Z,7.97
2019-04-23T15:07:16.840Z,6.83
2019-04-23T15:09:28.118Z,5.92
2019-04-23T15:13:42.725Z,10.60
2019-04-23T15:15:48.841Z,7.90
2019-04-23T15:17:49.833Z,10.70
2019-04-23T15:20:12.052Z,10.08
2019-04-23T15:24:30.461Z,8.58
2019-04-23T15:28:09.133Z,5.17
2019-04-23T15:30:35.768Z,8.28
2019-04-23T15:32:54.539Z,9.35
2019-04-23T15:35:03.053Z,16.75
2019-04-23T15:37:15.558Z,12.37
2019-04-23T15:39:21.069Z,5.28
2019-04-23T15:41:21.394Z,13.40
2019-04-23T15:43:14.619Z,5.92
2019-04-23T15:45:35.404Z,12.28
2019-04-23T15:49:45.142Z,13.03
2019-04-23T15:51:52.586Z,14.68
2019-04-23T15:53:56.642Z,8.83
2019-04-23T15:56:13.412Z,10.90
2019-04-23T16:00:13.000Z,23.55
2019-04-23T16:01:55.099Z,26.05
2019-04-23T16:04:01.388Z,20.20
2019-04-23T16:06:07.942Z,21.05
2019-04-23T16:08:51.829Z,14.87
2019-04-23T16:10:54.855Z,18.55
2019-04-23T16:12:56.747Z,31.40
2019-04-23T16:15:06.528Z,19.48
2019-04-23T16:17:18.807Z,28.25
2019-04-23T16:19:36.063Z,28.32
2019-04-23T16:21:47.301Z,39.18
2019-04-23T16:23:50.367Z,34.35
2019-04-23T16:25:53.426Z,23.47
2019-04-23T16:28:02.187Z,27.95
2019-04-23T16:30:19.279Z,23.32
2019-04-23T16:32:20.943Z,30.52
2019-04-23T16:34:33.748Z,21.80
2019-04-23T16:36:38.243Z,26.50
2019-04-23T16:40:58.661Z,32.93
2019-04-23T16:43:12.743Z,42.05
2019-04-23T16:45:14.927Z,37.30
2019-04-23T16:47:21.841Z,55.85
2019-04-23T16:51:29.634Z,42.20
2019-04-23T16:53:51.293Z,54.45
2019-04-23T16:55:52.312Z,56.50
2019-04-23T16:57:57.393Z,60.92
2019-04-23T17:00:15.140Z,62.10
2019-04-23T17:02:12.091Z,61.15
2019-04-23T17:04:19.580Z,64.15
2019-04-23T17:06:29.350Z,69.07
2019-04-23T17:12:38.703Z,67.37
2019-04-23T17:14:48.182Z,64.32
2019-04-23T17:16:58.240Z,73.85
2019-04-23T17:19:09.327Z,56.98
2019-04-23T17:21:01.920Z,53.02
2019-04-23T17:23:27.089Z,47.58
2019-04-23T17:25:20.524Z,37.67
2019-04-23T17:27:28.147Z,46.50
2019-04-23T17:29:35.255Z,40.83
2019-04-23T17:33:51.556Z,29.98
2019-04-23T17:38:33.650Z,33.95
2019-04-23T17:40:30.955Z,26.35
2019-04-23T17:42:50.958Z,28.38
2019-04-23T17:45:17.058Z,32.05
2019-04-23T17:47:13.670Z,23.70
2019-04-23T17:49:15.275Z,30.08
2019-04-23T17:51:28.124Z,26.40
2019-04-23T17:53:32.749Z,20.45
2019-04-23T17:55:46.738Z,24.95
2019-04-23T18:02:30.467Z,20.92
2019-04-23T18:04:10.372Z,21.00
2019-04-23T18:08:21.315Z,16.27
2019-04-23T18:14:40.339Z,19.12
2019-04-23T18:21:21.461Z,16.25
2019-04-23T18:23:13.783Z,12.07
2019-04-23T18:25:32.369Z,14.98
2019-04-23T18:27:43.749Z,16.27
2019-04-23T18:30:05.437Z,13.43
2019-04-23T18:32:16.344Z,15.13
2019-04-23T18:34:33.338Z,14.10
2019-04-23T18:36:18.304Z,12.40
2019-04-23T18:38:37.526Z,12.45
2019-04-23T18:40:54.612Z,10.85
2019-04-23T18:42:45.103Z,12.30
2019-04-23T18:44:56.189Z,12.85
2019-04-23T18:47:04.419Z,9.68
2019-04-23T18:48:59.639Z,8.98
2019-04-23T18:51:06.373Z,15.63
2019-04-23T18:53:35.282Z,15.08
2019-04-23T18:55:55.859Z,7.67
2019-04-23T18:57:39.887Z,12.43
2019-04-23T18:59:55.109Z,10.03
2019-04-23T19:02:33.663Z,12.40
2019-04-23T19:04:54.254Z,8.90
2019-04-23T19:06:45.688Z,8.65
2019-04-23T19:09:16.230Z,13.35
2019-04-23T19:11:46.114Z,11.50
2019-04-23T19:13:50.529Z,12.13
2019-04-23T19:15:42.604Z,9.23
2019-04-23T19:18:08.558Z,8.10
2019-04-23T19:20:01.106Z,11.80
2019-04-23T19:24:15.858Z,12.80
2019-04-23T19:26:45.830Z,22.17
2019-04-23T19:28:44.494Z,87.55
2019-04-23T19:33:03.632Z,92.57
2019-04-23T19:35:31.669Z,110.00
2019-04-23T19:37:31.307Z,79.62
2019-04-23T19:39:29.595Z,70.32
2019-04-23T19:41:52.481Z,59.95
2019-04-23T19:43:49.476Z,54.33
2019-04-23T19:46:00.911Z,54.05
2019-04-23T19:50:03.652Z,43.87
2019-04-23T19:52:34.552Z,43.65
2019-04-23T19:54:25.188Z,41.42
2019-04-23T19:56:34.026Z,48.23
2019-04-23T19:58:41.260Z,52.88
2019-04-23T20:01:00.573Z,49.40
2019-04-23T20:04:56.277Z,30.82
2019-04-23T20:11:15.151Z,40.88
2019-04-23T20:13:35.845Z,28.73
2019-04-23T20:15:40.886Z,33.90
2019-04-23T20:17:43.234Z,35.73
2019-04-23T20:19:46.407Z,28.55
2019-04-23T20:26:13.501Z,34.65
2019-04-23T20:28:41.079Z,33.38
2019-04-23T20:31:03.789Z,31.35
2019-04-23T20:32:06.341Z,46.73
2019-04-23T20:35:24.174Z,37.70
2019-04-23T20:37:57.941Z,31.52
2019-04-23T20:39:45.471Z,27.15
2019-04-23T20:44:02.086Z,34.67
2019-04-23T20:46:08.690Z,26.93
2019-04-23T20:48:16.029Z,33.10
2019-04-23T20:50:16.497Z,23.87
2019-04-23T20:52:22.707Z,25.62
2019-04-23T20:56:51.797Z,28.15
2019-04-23T20:58:59.746Z,24.55
2019-04-23T21:01:18.831Z,22.65
2019-04-23T21:07:49.189Z,22.70
2019-04-23T21:09:56.959Z,25.55
2019-04-23T21:11:57.979Z,21.23
2019-04-23T21:14:24.087Z,20.57
2019-04-23T21:16:13.003Z,22.07
2019-04-23T21:20:33.557Z,21.50
2019-04-23T21:22:21.512Z,24.40
2019-04-23T21:24:28.680Z,21.35
2019-04-23T21:26:35.808Z,22.80
2019-04-23T21:28:45.368Z,22.62
2019-04-23T21:31:20.939Z,17.80
2019-04-23T21:33:38.783Z,18.85
2019-04-23T21:36:12.645Z,16.15
2019-04-23T21:38:27.608Z,19.17
2019-04-23T21:40:42.777Z,17.57
2019-04-23T21:42:42.750Z,26.07
2019-04-23T21:44:40.520Z,16.55
2019-04-23T21:46:51.058Z,17.20
2019-04-23T21:53:11.079Z,15.28
2019-04-23T21:55:20.668Z,14.75
2019-04-23T21:57:25.917Z,15.88
2019-04-23T21:59:27.460Z,11.43
2019-04-23T22:04:06.443Z,15.15
2019-04-23T22:05:56.685Z,20.32
2019-04-23T22:08:03.045Z,14.43
2019-04-23T22:10:02.658Z,13.05
2019-04-23T22:12:08.486Z,15.43
2019-04-23T22:14:16.946Z,12.37
2019-04-23T22:18:34.224Z,12.53
2019-04-23T22:20:44.450Z,19.52
2019-04-23T22:22:56.883Z,11.80
2019-04-23T22:24:53.047Z,11.93
2019-04-23T22:26:53.220Z,12.82
2019-04-23T22:31:18.806Z,15.13
2019-04-23T22:33:25.254Z,12.10
2019-04-23T22:35:23.676Z,12.25
2019-04-23T22:37:29.971Z,14.28
2019-04-23T22:41:55.939Z,11.18
2019-04-23T22:44:07.025Z,14.13
2019-04-23T22:46:05.347Z,11.88
2019-04-23T22:48:08.009Z,9.95
2019-04-23T22:50:18.634Z,10.55
2019-04-23T22:52:21.619Z,12.05
2019-04-23T22:54:32.380Z,11.00
2019-04-23T22:56:44.047Z,9.50
2019-04-23T22:58:51.768Z,6.22
2019-04-23T23:01:12.616Z,9.45
2019-04-23T23:03:22.631Z,12.50
2019-04-23T23:07:47.087Z,8.30
2019-04-23T23:09:58.454Z,10.23
2019-04-23T23:16:07.297Z,10.28
2019-04-23T23:22:27.318Z,12.28
2019-04-23T23:24:37.588Z,8.18
2019-04-23T23:26:50.418Z,10.32
2019-04-23T23:28:48.857Z,10.55
2019-04-23T23:31:03.950Z,6.92
2019-04-23T23:33:11.183Z,7.60
2019-04-23T23:37:13.341Z,8.70
2019-04-23T23:41:31.764Z,6.15
2019-04-23T23:43:44.599Z,8.83
2019-04-23T23:45:57.285Z,9.38
2019-04-23T23:47:58.637Z,7.83
2019-04-23T23:50:16.207Z,7.05
2019-04-23T23:52:13.090Z,8.10
